createdAt,value
2018-09-08T00:57:53.295Z,17.10
2018-09-08T01:00:22.269Z,17.10
2018-09-08T01:02:51.195Z,17.10
2018-09-08T01:05:20.171Z,17.10
2018-09-08T01:07:49.068Z,17.10
2018-09-08T01:10:18.047Z,17.10
2018-09-08T01:12:47.022Z,17.00
2018-09-08T01:15:16.039Z,17.00
2018-09-08T01:17:45.063Z,17.00
2018-09-08T01:20:14.066Z,16.90
2018-09-08T01:22:43.023Z,16.90
2018-09-08T01:25:11.962Z,16.80
2018-09-08T01:27:41.100Z,16.80
2018-09-08T01:30:10.108Z,16.80
2018-09-08T01:32:39.095Z,16.80
2018-09-08T01:35:08.164Z,16.80
2018-09-08T01:37:37.246Z,16.80
2018-09-08T01:40:06.971Z,16.80
2018-09-08T01:42:36.007Z,16.80
2018-09-08T01:45:05.295Z,16.70
2018-09-08T01:47:34.436Z,16.70
2018-09-08T01:50:03.645Z,16.70
2018-09-08T01:52:32.610Z,16.70
2018-09-08T01:55:01.569Z,16.70
2018-09-08T01:57:30.649Z,16.70
2018-09-08T01:59:59.804Z,16.70
2018-09-08T02:02:28.734Z,16.70
2018-09-08T02:05:00.342Z,16.70
2018-09-08T02:07:32.289Z,16.70
2018-09-08T02:10:03.042Z,16.60
2018-09-08T02:12:32.689Z,16.60
2018-09-08T02:15:01.686Z,16.60
2018-09-08T02:17:31.803Z,16.60
2018-09-08T02:20:00.839Z,16.60
2018-09-08T02:22:29.867Z,16.60
2018-09-08T02:24:58.931Z,16.60
2018-09-08T02:27:27.876Z,16.60
2018-09-08T02:29:56.855Z,16.60
2018-09-08T02:32:25.859Z,16.60
2018-09-08T02:34:54.840Z,16.60
2018-09-08T02:37:24.093Z,16.50
2018-09-08T02:39:53.067Z,16.50
2018-09-08T02:42:22.115Z,16.50
2018-09-08T02:44:51.148Z,16.50
2018-09-08T02:47:20.156Z,16.50
2018-09-08T02:49:59.983Z,16.50
2018-09-08T02:52:27.800Z,16.50
2018-09-08T02:54:55.719Z,16.40
2018-09-08T02:57:23.311Z,16.40
2018-09-08T02:59:51.010Z,16.40
2018-09-08T03:02:18.544Z,16.40
2018-09-08T03:04:46.111Z,16.30
2018-09-08T03:07:15.226Z,16.40
2018-09-08T03:09:44.759Z,16.30
2018-09-08T03:12:12.355Z,16.30
2018-09-08T03:14:39.955Z,16.30
2018-09-08T03:17:07.895Z,16.30
2018-09-08T03:19:35.503Z,16.30
2018-09-08T03:22:03.042Z,16.20
2018-09-08T03:24:30.622Z,16.20
2018-09-08T03:26:58.151Z,16.20
2018-09-08T03:29:25.726Z,16.20
2018-09-08T03:31:53.276Z,16.20
2018-09-08T03:34:20.843Z,16.20
2018-09-08T03:36:48.427Z,16.20
2018-09-08T03:39:15.967Z,16.20
2018-09-08T03:41:43.559Z,16.20
2018-09-08T03:44:11.702Z,16.20
2018-09-08T03:46:39.530Z,16.20
2018-09-08T03:49:07.093Z,16.20
2018-09-08T03:51:34.751Z,16.10
2018-09-08T03:54:02.407Z,16.10
2018-09-08T03:56:29.980Z,16.10
2018-09-08T03:58:57.552Z,16.10
2018-09-08T04:01:25.203Z,16.00
2018-09-08T04:03:54.203Z,16.00
2018-09-08T04:06:23.225Z,16.00
2018-09-08T04:08:52.216Z,16.00
2018-09-08T04:11:21.223Z,15.90
2018-09-08T04:13:50.194Z,15.90
2018-09-08T04:16:19.159Z,15.90
2018-09-08T04:18:48.279Z,15.90
2018-09-08T04:21:17.393Z,15.80
2018-09-08T04:23:47.043Z,15.80
2018-09-08T04:26:16.066Z,15.80
2018-09-08T04:28:45.087Z,15.80
2018-09-08T04:31:14.099Z,15.80
2018-09-08T04:33:43.043Z,15.80
2018-09-08T04:36:12.044Z,15.70
2018-09-08T04:38:41.015Z,15.70
2018-09-08T04:41:10.099Z,15.60
2018-09-08T04:43:39.109Z,15.60
2018-09-08T04:46:08.055Z,15.60
2018-09-08T04:48:37.063Z,15.60
2018-09-08T04:51:06.192Z,15.60
2018-09-08T04:53:35.179Z,15.60
2018-09-08T04:56:04.140Z,15.60
2018-09-08T04:58:33.159Z,15.60
2018-09-08T05:01:02.191Z,15.60
2018-09-08T05:03:31.234Z,15.60
2018-09-08T05:06:00.184Z,15.60
2018-09-08T05:08:29.220Z,15.60
2018-09-08T05:10:58.152Z,15.60
2018-09-08T05:13:27.161Z,15.60
2018-09-08T05:15:56.132Z,15.70
2018-09-08T05:18:25.129Z,15.70
2018-09-08T05:20:54.060Z,15.80
2018-09-08T05:23:24.004Z,15.80
2018-09-08T05:25:53.059Z,15.80
2018-09-08T05:28:22.110Z,15.80
2018-09-08T05:30:51.172Z,15.90
2018-09-08T05:33:20.275Z,16.20
2018-09-08T05:35:50.197Z,16.70
2018-09-08T05:38:19.185Z,17.10
2018-09-08T05:40:48.163Z,17.70
2018-09-08T05:43:17.138Z,18.60
2018-09-08T05:45:46.140Z,19.20
2018-09-08T05:48:15.392Z,19.50
2018-09-08T05:50:44.319Z,19.80
2018-09-08T05:53:13.372Z,19.90
2018-09-08T05:55:42.341Z,20.00
2018-09-08T05:58:11.356Z,20.20
2018-09-08T06:00:40.404Z,20.30
2018-09-08T06:03:09.411Z,20.30
2018-09-08T06:05:38.440Z,20.30
2018-09-08T06:08:07.385Z,20.20
2018-09-08T06:10:36.383Z,20.20
2018-09-08T06:13:05.452Z,20.10
2018-09-08T06:15:34.473Z,20.00
2018-09-08T06:18:03.521Z,20.10
2018-09-08T06:20:32.512Z,20.20
2018-09-08T06:23:01.670Z,20.30
2018-09-08T06:25:32.456Z,20.40
2018-09-08T06:30:36.344Z,19.90
2018-09-08T06:33:05.399Z,19.60
2018-09-08T06:35:34.448Z,19.60
2018-09-08T06:38:03.415Z,19.70
2018-09-08T06:40:32.464Z,19.80
2018-09-08T06:43:01.441Z,19.90
2018-09-08T06:45:30.430Z,19.90
2018-09-08T06:48:01.352Z,19.90
2018-09-08T06:50:30.568Z,20.00
2018-09-08T06:52:59.568Z,20.00
2018-09-08T06:55:28.563Z,20.10
2018-09-08T06:57:57.857Z,20.00
2018-09-08T07:00:28.504Z,20.00
2018-09-08T07:03:00.250Z,19.90
2018-09-08T07:05:29.271Z,20.20
2018-09-08T07:08:04.678Z,20.40
2018-09-08T07:10:40.402Z,20.40
2018-09-08T07:13:12.196Z,20.10
2018-09-08T07:15:49.496Z,19.90
2018-09-08T07:18:18.580Z,19.60
2018-09-08T07:23:38.871Z,19.30
2018-09-08T07:26:11.328Z,19.20
2018-09-08T07:28:45.336Z,19.20
2018-09-08T07:31:15.308Z,19.20
2018-09-08T07:33:53.816Z,19.30
2018-09-08T07:36:29.553Z,19.30
2018-09-08T07:38:59.520Z,19.40
2018-09-08T07:41:28.784Z,19.50
2018-09-08T07:43:58.391Z,19.60
2018-09-08T07:46:28.394Z,19.70
2018-09-08T07:48:57.452Z,19.70
2018-09-08T07:51:26.552Z,19.80
2018-09-08T07:53:55.642Z,19.80
2018-09-08T07:56:24.632Z,19.90
2018-09-08T07:58:56.640Z,19.90
2018-09-08T08:01:27.201Z,20.00
2018-09-08T08:03:56.367Z,20.10
2018-09-08T08:06:26.413Z,20.30
2018-09-08T08:08:56.330Z,20.50
2018-09-08T08:11:25.480Z,20.60
2018-09-08T08:13:56.042Z,20.70
2018-09-08T08:16:26.959Z,21.00
2018-09-08T08:18:56.958Z,21.20
2018-09-08T08:21:26.095Z,21.40
2018-09-08T08:23:55.107Z,21.60
2018-09-08T08:26:24.192Z,21.70
2018-09-08T08:28:54.903Z,21.80
2018-09-08T08:31:24.125Z,21.80
2018-09-08T08:33:54.144Z,21.90
2018-09-08T08:36:24.080Z,22.00
2018-09-08T08:38:58.206Z,22.10
2018-09-08T08:41:27.202Z,22.10
2018-09-08T08:43:56.306Z,22.10
2018-09-08T08:46:25.436Z,22.10
2018-09-08T08:48:54.843Z,22.10
2018-09-08T08:51:35.754Z,22.20
2018-09-08T08:54:17.291Z,22.30
2018-09-08T08:56:47.357Z,22.40
2018-09-08T08:59:16.387Z,22.50
2018-09-08T09:01:45.397Z,22.60
2018-09-08T09:04:14.449Z,22.70
2018-09-08T09:07:33.554Z,22.80
2018-09-08T09:10:14.219Z,22.90
2018-09-08T09:12:48.133Z,23.10
2018-09-08T09:15:17.609Z,23.30
2018-09-08T09:17:46.493Z,23.20
2018-09-08T09:20:26.356Z,23.10
2018-09-08T09:23:06.643Z,23.00
2018-09-08T09:25:36.025Z,23.10
2018-09-08T09:28:05.497Z,23.30
2018-09-08T09:30:37.145Z,23.50
2018-09-08T09:33:28.748Z,23.70
2018-09-08T09:36:01.504Z,23.90
2018-09-08T09:38:36.756Z,24.10
2018-09-08T09:41:06.071Z,24.30
2018-09-08T09:43:35.920Z,24.50
2018-09-08T09:46:09.483Z,24.70
2018-09-08T09:48:38.580Z,24.80
2018-09-08T09:51:11.748Z,24.90
2018-09-08T09:53:41.072Z,24.80
2018-09-08T09:56:11.287Z,24.70
2018-09-08T09:58:42.084Z,24.60
2018-09-08T10:01:12.629Z,24.50
2018-09-08T10:03:43.693Z,24.70
2018-09-08T10:06:13.464Z,24.90
2018-09-08T10:08:42.874Z,25.20
2018-09-08T10:11:14.360Z,25.60
2018-09-08T10:13:45.572Z,25.80
2018-09-08T10:16:19.976Z,26.10
2018-09-08T10:18:52.950Z,26.30
2018-09-08T10:21:23.811Z,26.20
2018-09-08T10:24:05.160Z,26.20
2018-09-08T10:26:22.928Z,25.90
2018-09-08T10:28:53.768Z,25.60
2018-09-08T10:31:25.344Z,25.40
2018-09-08T10:33:56.096Z,25.20
2018-09-08T10:36:29.798Z,24.90
2018-09-08T10:39:05.687Z,24.80
2018-09-08T10:41:34.776Z,24.70
2018-09-08T10:44:03.896Z,24.70
2018-09-08T10:46:33.076Z,24.60
2018-09-08T10:49:02.286Z,24.70
2018-09-08T10:51:43.464Z,25.00
2018-09-08T10:54:12.483Z,25.40
2018-09-08T10:56:41.600Z,26.00
2018-09-08T10:59:10.617Z,26.40
2018-09-08T11:01:40.256Z,26.80
2018-09-08T11:04:09.219Z,27.10
2018-09-08T11:06:38.287Z,27.30
2018-09-08T11:09:07.528Z,27.30
2018-09-08T11:11:36.607Z,27.40
2018-09-08T11:14:05.798Z,27.80
2018-09-08T11:16:34.846Z,28.00
2018-09-08T11:19:03.933Z,28.00
2018-09-08T11:21:33.004Z,28.00
2018-09-08T11:24:02.031Z,28.20
2018-09-08T11:26:31.098Z,28.50
2018-09-08T11:29:00.144Z,28.80
2018-09-08T11:31:29.240Z,29.20
2018-09-08T11:33:58.496Z,29.30
2018-09-08T11:36:27.533Z,28.90
2018-09-08T11:38:56.604Z,28.50
2018-09-08T11:41:25.696Z,28.30
2018-09-08T11:43:54.708Z,28.30
2018-09-08T11:46:23.747Z,28.30
2018-09-08T11:48:52.781Z,28.40
2018-09-08T11:51:21.856Z,28.70
2018-09-08T11:53:50.893Z,29.10
2018-09-08T11:56:19.928Z,29.70
2018-09-08T11:58:48.932Z,30.30
2018-09-08T12:01:17.976Z,30.60
2018-09-08T12:03:46.994Z,30.60
2018-09-08T12:06:16.027Z,30.60
2018-09-08T12:08:45.062Z,30.50
2018-09-08T12:11:14.108Z,30.60
2018-09-08T12:13:43.153Z,30.70
2018-09-08T12:16:12.560Z,30.70
2018-09-08T12:18:41.645Z,30.80
2018-09-08T12:21:10.694Z,30.90
2018-09-08T12:23:39.848Z,30.70
2018-09-08T12:26:09.402Z,30.20
2018-09-08T12:28:39.081Z,29.70
2018-09-08T12:31:08.316Z,29.10
2018-09-08T12:39:21.644Z,28.60
2018-09-08T12:41:50.724Z,28.80
2018-09-08T12:44:19.945Z,28.90
2018-09-08T12:46:49.000Z,28.90
2018-09-08T12:49:18.100Z,28.80
2018-09-08T12:51:47.265Z,28.60
2018-09-08T12:54:16.349Z,28.40
2018-09-08T12:56:45.400Z,28.60
2018-09-08T12:59:14.485Z,29.20
2018-09-08T13:01:43.544Z,29.60
2018-09-08T13:04:12.645Z,30.00
2018-09-08T13:06:41.700Z,30.20
2018-09-08T13:09:10.844Z,30.50
2018-09-08T13:11:39.909Z,30.90
2018-09-08T13:14:08.970Z,31.10
2018-09-08T13:16:38.241Z,31.30
2018-09-08T13:19:07.453Z,31.60
2018-09-08T13:21:37.684Z,31.80
2018-09-08T13:24:07.144Z,31.90
2018-09-08T13:26:36.375Z,31.80
2018-09-08T13:29:05.746Z,31.50
2018-09-08T13:31:35.412Z,31.10
2018-09-08T13:34:04.998Z,30.50
2018-09-08T13:36:34.240Z,30.10
2018-09-08T13:39:03.680Z,29.70
2018-09-08T13:41:32.824Z,29.40
2018-09-08T13:44:02.696Z,29.10
2018-09-08T13:46:31.842Z,28.80
2018-09-08T13:49:02.039Z,28.60
2018-09-08T13:51:32.203Z,28.20
2018-09-08T13:54:01.452Z,27.90
2018-09-08T13:56:30.620Z,27.70
2018-09-08T13:59:00.072Z,27.60
2018-09-08T14:01:29.589Z,27.60
2018-09-08T14:03:58.745Z,27.40
2018-09-08T14:06:27.980Z,27.40
2018-09-08T14:08:57.200Z,27.40
2018-09-08T14:11:26.426Z,27.40
2018-09-08T14:13:55.654Z,27.50
2018-09-08T14:16:24.808Z,27.60
2018-09-08T14:18:53.973Z,28.00
2018-09-08T14:21:23.092Z,28.60
2018-09-08T14:23:52.207Z,29.20
2018-09-08T14:26:22.011Z,29.70
2018-09-08T14:28:51.148Z,30.10
2018-09-08T14:31:20.267Z,30.60
2018-09-08T14:33:49.335Z,30.60
2018-09-08T14:36:18.741Z,30.70
2018-09-08T14:38:48.112Z,30.80
2018-09-08T14:41:17.149Z,30.90
2018-09-08T14:43:46.349Z,30.90
2018-09-08T14:46:15.426Z,30.90
2018-09-08T14:48:44.509Z,30.60
2018-09-08T14:51:13.608Z,30.10
2018-09-08T14:53:43.064Z,29.70
2018-09-08T14:56:12.199Z,29.40
2018-09-08T14:58:41.241Z,29.20
2018-09-08T15:01:10.466Z,29.10
2018-09-08T15:03:39.584Z,29.40
2018-09-08T15:06:08.632Z,29.70
2018-09-08T15:08:37.731Z,29.20
2018-09-08T15:11:06.864Z,28.80
2018-09-08T15:13:36.388Z,28.50
2018-09-08T15:16:05.411Z,28.40
2018-09-08T15:18:34.472Z,28.30
2018-09-08T15:21:03.531Z,28.30
2018-09-08T15:23:32.736Z,28.30
2018-09-08T15:26:02.713Z,28.90
2018-09-08T15:28:32.534Z,29.60
2018-09-08T15:31:01.969Z,30.90
2018-09-08T15:33:31.032Z,30.80
2018-09-08T15:36:00.385Z,29.60
2018-09-08T15:38:29.437Z,28.80
2018-09-08T15:40:58.628Z,28.10
2018-09-08T15:43:27.624Z,28.60
2018-09-08T15:45:56.743Z,30.80
2018-09-08T15:48:25.828Z,31.00
2018-09-08T15:50:54.906Z,30.30
2018-09-08T15:53:24.080Z,29.50
2018-09-08T15:55:53.154Z,29.60
2018-09-08T15:58:22.305Z,29.20
2018-09-08T16:00:51.534Z,28.70
2018-09-08T16:03:20.632Z,28.10
2018-09-08T16:05:50.225Z,27.60
2018-09-08T16:08:19.452Z,27.30
2018-09-08T16:10:48.594Z,28.70
2018-09-08T16:13:17.592Z,28.70
2018-09-08T16:15:46.771Z,27.80
2018-09-08T16:18:16.152Z,27.10
2018-09-08T16:20:46.630Z,26.50
2018-09-08T16:23:15.717Z,26.10
2018-09-08T16:25:44.846Z,25.70
2018-09-08T16:28:13.992Z,25.60
2018-09-08T16:30:43.092Z,25.50
2018-09-08T16:33:13.252Z,25.50
2018-09-08T16:35:42.340Z,25.40
2018-09-08T16:38:12.541Z,25.40
2018-09-08T16:40:41.796Z,25.20
2018-09-08T16:43:11.116Z,25.00
2018-09-08T16:45:40.255Z,24.80
2018-09-08T16:48:09.344Z,24.60
2018-09-08T16:50:38.462Z,24.50
2018-09-08T16:53:07.672Z,24.20
2018-09-08T16:55:37.158Z,24.10
2018-09-08T16:58:06.538Z,24.00
2018-09-08T17:00:35.773Z,23.90
2018-09-08T17:03:04.931Z,23.80
2018-09-08T17:05:34.211Z,23.70
2018-09-08T17:08:03.747Z,23.60
2018-09-08T17:10:32.916Z,23.50
2018-09-08T17:13:02.197Z,23.30
2018-09-08T17:15:31.423Z,23.10
2018-09-08T17:18:00.936Z,23.00
2018-09-08T17:20:30.159Z,22.80
2018-09-08T17:22:59.362Z,22.70
2018-09-08T17:25:28.810Z,22.60
2018-09-08T17:27:58.448Z,22.50
2018-09-08T17:30:27.839Z,22.40
2018-09-08T17:32:57.063Z,22.30
2018-09-08T17:35:26.429Z,22.20
2018-09-08T17:37:55.550Z,22.10
2018-09-08T17:40:24.720Z,22.00
2018-09-08T17:42:53.845Z,22.00
2018-09-08T17:45:22.929Z,22.00
2018-09-08T17:47:52.088Z,21.90
2018-09-08T17:50:21.210Z,21.80
2018-09-08T17:52:50.324Z,21.80
2018-09-08T17:55:19.463Z,21.70
2018-09-08T17:57:48.548Z,21.70
2018-09-08T18:00:17.520Z,21.60
2018-09-08T18:02:47.004Z,21.50
2018-09-08T18:05:16.724Z,21.50
2018-09-08T18:07:45.827Z,21.40
2018-09-08T18:10:14.911Z,21.40
2018-09-08T18:12:44.035Z,21.30
2018-09-08T18:15:13.127Z,21.20
2018-09-08T18:17:42.329Z,21.00
2018-09-08T18:20:17.168Z,20.80
2018-09-08T18:22:46.201Z,20.70
2018-09-08T18:25:15.313Z,20.70
2018-09-08T18:27:44.421Z,20.60
2018-09-08T18:30:13.620Z,20.50
2018-09-08T18:32:45.836Z,20.50
2018-09-08T18:35:16.361Z,20.50
2018-09-08T18:37:45.571Z,20.40
2018-09-08T18:40:14.596Z,20.40
2018-09-08T18:42:44.248Z,20.30
2018-09-08T18:45:13.393Z,20.30
2018-09-08T18:47:42.564Z,20.20
2018-09-08T18:50:11.664Z,20.30
2018-09-08T18:52:40.710Z,20.30
2018-09-08T18:55:09.848Z,20.30
2018-09-08T18:57:38.862Z,20.20
2018-09-08T19:00:07.960Z,20.30
2018-09-08T19:02:37.464Z,20.50
2018-09-08T19:05:06.707Z,20.40
2018-09-08T19:07:35.815Z,20.20
2018-09-08T19:10:05.556Z,20.00
2018-09-08T19:12:35.919Z,19.80
2018-09-08T19:15:10.163Z,19.70
2018-09-08T19:17:39.251Z,19.60
2018-09-08T19:20:14.396Z,19.50
2018-09-08T19:22:43.945Z,19.40
2018-09-08T19:25:14.111Z,19.40
2018-09-08T19:27:43.231Z,19.30
2018-09-08T19:30:12.504Z,19.20
2018-09-08T19:32:41.573Z,19.10
2018-09-08T19:35:15.929Z,19.10
2018-09-08T19:37:45.128Z,19.00
2018-09-08T19:40:19.269Z,19.00
2018-09-08T19:42:48.461Z,18.90
2018-09-08T19:45:17.529Z,18.80
2018-09-08T19:47:51.741Z,18.80
2018-09-08T19:50:20.932Z,18.70
2018-09-08T19:52:55.196Z,18.70
2018-09-08T19:55:24.258Z,18.70
2018-09-08T19:57:58.503Z,18.60
2018-09-08T20:00:27.520Z,18.50
2018-09-08T20:02:56.563Z,18.40
2018-09-08T20:05:25.650Z,18.40
2018-09-08T20:07:55.470Z,18.30
2018-09-08T20:10:24.516Z,18.30
2018-09-08T20:12:53.844Z,18.50
2018-09-08T20:15:23.937Z,18.50
2018-09-08T20:17:53.099Z,18.70
2018-09-08T20:20:22.129Z,18.60
2018-09-08T20:22:51.320Z,18.50
2018-09-08T20:25:20.444Z,18.40
2018-09-08T20:27:50.481Z,18.30
2018-09-08T20:30:19.631Z,18.30
2018-09-08T20:32:48.716Z,18.20
2018-09-08T20:35:17.777Z,18.10
2018-09-08T20:37:46.813Z,18.10
2018-09-08T20:40:16.184Z,18.00
2018-09-08T20:42:45.284Z,17.90
2018-09-08T20:45:14.304Z,17.80
2018-09-08T20:47:43.913Z,17.80
2018-09-08T20:50:15.358Z,17.70
2018-09-08T20:52:45.180Z,17.60
2018-09-08T20:55:14.244Z,17.60
2018-09-08T20:57:43.305Z,17.50
2018-09-08T21:00:12.304Z,17.50
2018-09-08T21:02:41.332Z,17.50
2018-09-08T21:05:10.353Z,17.40
2018-09-08T21:07:39.411Z,17.40
2018-09-08T21:10:08.549Z,17.40
2018-09-08T21:12:37.567Z,17.30
2018-09-08T21:15:07.251Z,17.40
2018-09-08T21:17:36.264Z,17.70
2018-09-08T21:20:05.301Z,17.70
2018-09-08T21:22:34.427Z,17.60
2018-09-08T21:25:03.455Z,17.50
2018-09-08T21:27:32.413Z,17.40
2018-09-08T21:30:01.426Z,17.30
2018-09-08T21:32:30.440Z,17.30
2018-09-08T21:34:59.456Z,17.20
2018-09-08T21:37:28.896Z,17.20
2018-09-08T21:39:58.512Z,17.10
2018-09-08T21:42:27.998Z,17.00
2018-09-08T21:44:57.552Z,17.00
2018-09-08T21:47:27.592Z,16.90
2018-09-08T21:49:57.769Z,16.90
2018-09-08T21:52:26.784Z,16.90
2018-09-08T21:54:57.680Z,16.80
2018-09-08T21:57:27.130Z,16.80
2018-09-08T21:59:56.243Z,16.80
2018-09-08T22:02:25.264Z,16.70
2018-09-08T22:04:54.528Z,16.70
2018-09-08T22:07:24.092Z,16.70
2018-09-08T22:09:53.142Z,16.60
2018-09-08T22:12:22.121Z,16.60
2018-09-08T22:14:51.147Z,16.60
2018-09-08T22:17:20.120Z,16.60
2018-09-08T22:19:49.180Z,16.50
2018-09-08T22:22:18.317Z,16.50
2018-09-08T22:24:47.357Z,16.40
2018-09-08T22:27:16.328Z,16.40
2018-09-08T22:29:45.359Z,16.40
2018-09-08T22:32:14.328Z,16.30
2018-09-08T22:34:43.360Z,16.30
2018-09-08T22:37:12.587Z,16.30
2018-09-08T22:39:41.879Z,16.30
2018-09-08T22:42:11.532Z,16.20
2018-09-08T22:44:40.508Z,16.20
2018-09-08T22:47:09.540Z,16.10
2018-09-08T22:49:38.532Z,16.10
2018-09-08T22:52:07.564Z,16.10
2018-09-08T22:54:36.566Z,16.10
2018-09-08T22:57:05.648Z,16.00
2018-09-08T22:59:34.697Z,16.00
2018-09-08T23:02:04.112Z,15.90
2018-09-08T23:04:33.113Z,15.90
2018-09-08T23:07:02.781Z,15.80
2018-09-08T23:09:31.808Z,15.80
2018-09-08T23:12:00.833Z,15.80
2018-09-08T23:14:29.848Z,15.80
2018-09-08T23:16:58.887Z,15.80
2018-09-08T23:19:27.979Z,15.70
2018-09-08T23:21:56.984Z,15.70
2018-09-08T23:24:26.096Z,15.70
2018-09-08T23:26:55.364Z,15.70
2018-09-08T23:29:24.404Z,15.70
2018-09-08T23:31:53.428Z,15.70
2018-09-08T23:34:22.464Z,15.60
2018-09-08T23:36:51.452Z,15.60
2018-09-08T23:39:21.125Z,15.60
2018-09-08T23:41:50.116Z,15.50
2018-09-08T23:44:19.162Z,15.50
2018-09-08T23:46:48.221Z,15.40
2018-09-08T23:49:17.196Z,15.40
2018-09-08T23:51:46.452Z,15.30
2018-09-08T23:54:15.617Z,15.30
2018-09-08T23:56:44.582Z,15.30
2018-09-08T23:59:13.634Z,15.30
